createdAt,value
2016-12-16T00:00:17.439Z,3.52
2016-12-16T00:01:17.430Z,3.48
2016-12-16T00:02:17.416Z,3.5
2016-12-16T00:03:17.405Z,3.6
2016-12-16T00:04:17.386Z,3.6
2016-12-16T00:05:17.375Z,3.66
2016-12-16T00:06:17.360Z,3.57
2016-12-16T00:07:17.654Z,3.62
2016-12-16T00:08:17.333Z,3.55
2016-12-16T00:09:17.321Z,3.57
2016-12-16T00:10:17.306Z,3.58
2016-12-16T00:11:17.298Z,3.65
2016-12-16T00:12:17.280Z,3.58
2016-12-16T00:13:17.273Z,3.66
2016-12-16T00:14:17.254Z,3.62
2016-12-16T00:15:17.240Z,3.54
2016-12-16T00:16:17.229Z,3.5
2016-12-16T00:17:17.217Z,3.57
2016-12-16T00:18:17.202Z,3.6
2016-12-16T00:19:17.191Z,3.51
2016-12-16T00:20:17.174Z,3.54
2016-12-16T00:21:17.166Z,3.48
2016-12-16T00:22:17.149Z,3.58
2016-12-16T00:23:17.137Z,3.6
2016-12-16T00:24:17.125Z,3.57
2016-12-16T00:25:17.111Z,3.54
2016-12-16T00:26:17.102Z,3.51
2016-12-16T00:27:17.081Z,3.45
2016-12-16T00:28:17.073Z,3.47
2016-12-16T00:29:17.061Z,3.51
2016-12-16T00:30:17.046Z,3.5
2016-12-16T00:31:17.342Z,3.5
2016-12-16T00:32:17.019Z,3.36
2016-12-16T00:33:17.006Z,3.43
2016-12-16T00:34:16.988Z,3.4
2016-12-16T00:35:16.977Z,3.36
2016-12-16T00:36:16.963Z,3.35
2016-12-16T00:37:16.955Z,3.31
2016-12-16T00:38:16.940Z,3.43
2016-12-16T00:39:16.954Z,3.36
2016-12-16T00:40:16.916Z,3.35
2016-12-16T00:41:16.900Z,3.36
2016-12-16T00:42:16.885Z,3.35
2016-12-16T00:43:16.872Z,3.33
2016-12-16T00:44:16.859Z,3.33
2016-12-16T00:45:16.846Z,3.28
2016-12-16T00:46:16.869Z,3.28
2016-12-16T00:47:16.819Z,3.29
2016-12-16T00:48:16.809Z,3.4
2016-12-16T00:49:16.791Z,3.26
2016-12-16T00:50:16.777Z,3.31
2016-12-16T00:51:16.768Z,3.39
2016-12-16T00:52:16.754Z,3.32
2016-12-16T00:53:16.740Z,3.39
2016-12-16T00:54:16.732Z,3.28
2016-12-16T00:55:16.714Z,3.43
2016-12-16T00:56:16.699Z,3.24
2016-12-16T00:57:16.689Z,3.36
2016-12-16T00:58:16.675Z,3.26
2016-12-16T00:59:16.662Z,3.29
2016-12-16T01:00:16.644Z,3.21
2016-12-16T01:01:16.635Z,3.32
2016-12-16T01:02:16.618Z,3.28
2016-12-16T01:03:16.606Z,3.29
2016-12-16T01:04:16.593Z,3.39
2016-12-16T01:05:16.579Z,3.29
2016-12-16T01:06:16.569Z,3.31
2016-12-16T01:07:16.557Z,3.29
2016-12-16T01:08:16.540Z,3.23
2016-12-16T01:09:16.525Z,3.36
2016-12-16T01:10:16.515Z,3.33
2016-12-16T01:11:16.501Z,3.39
2016-12-16T01:12:16.491Z,3.31
2016-12-16T01:13:16.475Z,3.26
2016-12-16T01:14:16.459Z,3.33
2016-12-16T01:15:16.446Z,3.36
2016-12-16T01:16:16.433Z,3.31
2016-12-16T01:17:16.419Z,3.33
2016-12-16T01:18:16.404Z,3.33
2016-12-16T01:19:16.393Z,3.32
2016-12-16T01:20:16.376Z,3.31
2016-12-16T01:21:16.366Z,3.28
2016-12-16T01:22:16.352Z,3.29
2016-12-16T01:23:16.340Z,3.31
2016-12-16T01:24:16.326Z,3.26
2016-12-16T01:25:16.315Z,3.28
2016-12-16T01:26:16.297Z,3.33
2016-12-16T01:27:16.284Z,3.26
2016-12-16T01:28:16.278Z,3.24
2016-12-16T01:29:16.258Z,3.29
2016-12-16T01:30:16.249Z,3.36
2016-12-16T01:31:16.236Z,3.29
2016-12-16T01:32:16.218Z,3.42
2016-12-16T01:33:16.205Z,3.28
2016-12-16T01:34:16.511Z,3.33
2016-12-16T01:35:16.179Z,3.32
2016-12-16T01:36:16.167Z,3.26
2016-12-16T01:37:16.152Z,3.32
2016-12-16T01:38:16.140Z,3.26
2016-12-16T01:39:16.129Z,3.4
2016-12-16T01:40:16.111Z,3.35
2016-12-16T01:41:16.098Z,3.29
2016-12-16T01:42:16.085Z,3.31
2016-12-16T01:43:16.073Z,3.36
2016-12-16T01:44:16.059Z,3.32
2016-12-16T01:45:16.066Z,3.45
2016-12-16T01:46:16.031Z,3.36
2016-12-16T01:47:16.017Z,3.43
2016-12-16T01:48:16.002Z,3.4
2016-12-16T01:49:15.990Z,3.43
2016-12-16T01:50:15.976Z,3.33
2016-12-16T01:51:16.275Z,3.35
2016-12-16T01:52:15.957Z,3.4
2016-12-16T01:53:15.936Z,3.42
2016-12-16T01:54:15.926Z,3.35
2016-12-16T01:55:15.910Z,3.35
2016-12-16T01:56:15.897Z,3.52
2016-12-16T01:57:15.886Z,3.5
2016-12-16T01:58:15.871Z,3.52
2016-12-16T01:59:15.857Z,3.48
2016-12-16T02:00:15.842Z,3.52
2016-12-16T02:01:15.833Z,3.5
2016-12-16T02:02:15.849Z,3.4
2016-12-16T02:03:15.802Z,3.43
2016-12-16T02:04:15.793Z,3.45
2016-12-16T02:05:15.779Z,3.54
2016-12-16T02:06:15.764Z,3.55
2016-12-16T02:07:15.751Z,3.54
2016-12-16T02:08:15.760Z,3.45
2016-12-16T02:09:15.722Z,3.54
2016-12-16T02:10:15.711Z,3.55
2016-12-16T02:11:15.698Z,3.58
2016-12-16T02:12:15.993Z,3.6
2016-12-16T02:13:15.671Z,3.54
2016-12-16T02:14:15.659Z,3.5
2016-12-16T02:15:15.648Z,3.58
2016-12-16T02:16:15.632Z,3.54
2016-12-16T02:17:15.619Z,3.65
2016-12-16T02:18:15.607Z,3.52
2016-12-16T02:19:15.591Z,3.6
2016-12-16T02:20:15.576Z,3.52
2016-12-16T02:21:15.563Z,3.58
2016-12-16T02:22:15.554Z,3.57
2016-12-16T02:23:15.537Z,3.66
2016-12-16T02:24:15.523Z,3.62
2016-12-16T02:25:15.819Z,3.62
2016-12-16T02:26:15.499Z,3.66
2016-12-16T02:27:15.485Z,3.65
2016-12-16T02:28:15.471Z,3.65
2016-12-16T02:29:15.459Z,3.69
2016-12-16T02:30:15.446Z,3.69
2016-12-16T02:31:15.432Z,3.69
2016-12-16T02:32:15.419Z,3.76
2016-12-16T02:33:15.409Z,3.75
2016-12-16T02:34:15.394Z,3.78
2016-12-16T02:35:15.384Z,3.76
2016-12-16T02:36:15.366Z,3.78
2016-12-16T02:37:15.353Z,3.75
2016-12-16T02:38:15.339Z,3.8
2016-12-16T02:39:15.330Z,3.78
2016-12-16T02:40:15.312Z,3.83
2016-12-16T02:41:15.304Z,3.73
2016-12-16T02:42:15.287Z,3.78
2016-12-16T02:43:15.274Z,3.76
2016-12-16T02:44:15.261Z,3.83
2016-12-16T02:45:15.250Z,3.78
2016-12-16T02:46:15.236Z,3.87
2016-12-16T02:47:15.222Z,3.76
2016-12-16T02:48:15.209Z,3.83
2016-12-16T02:49:15.195Z,3.7
2016-12-16T02:50:15.183Z,3.83
2016-12-16T02:51:15.170Z,3.78
2016-12-16T02:52:15.163Z,3.78
2016-12-16T02:53:15.144Z,3.76
2016-12-16T02:54:15.134Z,3.69
2016-12-16T02:55:15.117Z,3.68
2016-12-16T02:56:15.107Z,3.7
2016-12-16T02:57:15.092Z,3.68
2016-12-16T02:58:15.084Z,3.66
2016-12-16T02:59:15.067Z,3.61
2016-12-16T03:00:15.054Z,3.7
2016-12-16T03:01:15.044Z,3.66
2016-12-16T03:02:15.029Z,3.65
2016-12-16T03:03:15.012Z,3.61
2016-12-16T03:04:15.001Z,3.6
2016-12-16T03:05:14.987Z,3.57
2016-12-16T03:06:14.974Z,3.66
2016-12-16T03:07:14.964Z,3.68
2016-12-16T03:08:14.952Z,3.65
2016-12-16T03:09:14.937Z,3.66
2016-12-16T03:10:14.921Z,3.62
2016-12-16T03:11:14.909Z,3.57
2016-12-16T03:12:14.896Z,3.51
2016-12-16T03:13:14.882Z,3.55
2016-12-16T03:14:14.871Z,3.42
2016-12-16T03:15:14.856Z,3.47
2016-12-16T03:16:14.843Z,3.36
2016-12-16T03:17:14.832Z,3.43
2016-12-16T03:18:14.817Z,3.31
2016-12-16T03:19:14.802Z,3.33
2016-12-16T03:20:14.787Z,3.33
2016-12-16T03:21:14.778Z,3.28
2016-12-16T03:22:14.765Z,3.26
2016-12-16T03:23:14.748Z,3.26
2016-12-16T03:24:14.740Z,3.23
2016-12-16T03:25:14.722Z,3.11
2016-12-16T03:26:14.711Z,3.13
2016-12-16T03:27:14.695Z,3.08
2016-12-16T03:28:14.684Z,3.02
2016-12-16T03:29:14.671Z,2.93
2016-12-16T03:30:14.653Z,2.89
2016-12-16T03:31:14.644Z,2.93
2016-12-16T03:32:14.635Z,2.77
2016-12-16T03:33:14.614Z,2.75
2016-12-16T03:34:14.602Z,2.81
2016-12-16T03:35:14.586Z,2.77
2016-12-16T03:36:14.574Z,2.69
2016-12-16T03:37:14.560Z,2.61
2016-12-16T03:38:14.547Z,2.59
2016-12-16T03:39:14.535Z,2.56
2016-12-16T03:40:14.517Z,2.59
2016-12-16T03:41:14.503Z,2.46
2016-12-16T03:42:14.500Z,2.48
2016-12-16T03:43:14.477Z,2.39
2016-12-16T03:44:14.462Z,2.36
2016-12-16T03:45:14.448Z,2.31
2016-12-16T03:46:14.434Z,2.42
2016-12-16T03:47:14.422Z,2.36
2016-12-16T03:48:14.406Z,2.23
2016-12-16T03:49:14.395Z,2.17
2016-12-16T03:50:14.686Z,2.2
2016-12-16T03:51:14.367Z,2.21
2016-12-16T03:52:14.351Z,2.14
2016-12-16T03:53:14.337Z,2.1
2016-12-16T03:54:14.324Z,2.03
2016-12-16T03:55:14.310Z,2.09
2016-12-16T03:56:14.327Z,2.02
2016-12-16T03:57:14.280Z,1.95
2016-12-16T03:58:14.266Z,1.98
2016-12-16T03:59:14.250Z,1.91
2016-12-16T04:00:14.237Z,1.93
2016-12-16T04:01:14.224Z,1.9
2016-12-16T04:02:14.209Z,1.88
2016-12-16T04:03:14.197Z,1.91
2016-12-16T04:04:14.182Z,1.8
2016-12-16T04:05:14.167Z,1.79
2016-12-16T04:06:14.154Z,1.77
2016-12-16T04:07:14.139Z,1.83
2016-12-16T04:08:14.430Z,1.77
2016-12-16T04:09:14.111Z,1.8
2016-12-16T04:10:14.095Z,1.81
2016-12-16T04:11:14.082Z,1.81
2016-12-16T04:12:14.067Z,1.7
2016-12-16T04:13:14.056Z,1.77
2016-12-16T04:14:14.038Z,1.73
2016-12-16T04:15:14.029Z,1.72
2016-12-16T04:16:14.311Z,1.69
2016-12-16T04:17:13.998Z,1.76
2016-12-16T04:18:13.980Z,1.79
2016-12-16T04:19:13.969Z,1.76
2016-12-16T04:20:13.954Z,1.73
2016-12-16T04:21:13.935Z,1.73
2016-12-16T04:22:13.925Z,1.68
2016-12-16T04:23:13.910Z,1.58
2016-12-16T04:24:13.891Z,1.59
2016-12-16T04:25:13.896Z,1.65
2016-12-16T04:26:13.862Z,1.62
2016-12-16T04:27:13.849Z,1.58
2016-12-16T04:28:13.838Z,1.62
2016-12-16T04:29:13.820Z,1.59
2016-12-16T04:30:13.810Z,1.68
2016-12-16T04:31:13.793Z,1.63
2016-12-16T04:32:13.775Z,1.63
2016-12-16T04:33:13.762Z,1.62
2016-12-16T04:34:13.750Z,1.58
2016-12-16T04:35:13.734Z,1.66
2016-12-16T04:36:13.718Z,1.66
2016-12-16T04:37:13.703Z,1.66
2016-12-16T04:38:13.694Z,1.76
2016-12-16T04:39:13.673Z,1.68
2016-12-16T04:40:13.690Z,1.69
2016-12-16T04:41:13.649Z,1.62
2016-12-16T04:42:13.632Z,1.6
2016-12-16T04:43:13.623Z,1.7
2016-12-16T04:44:13.600Z,1.69
2016-12-16T04:45:13.592Z,1.6
2016-12-16T04:46:13.579Z,1.6
2016-12-16T04:47:13.557Z,1.59
2016-12-16T04:48:13.543Z,1.62
2016-12-16T04:49:13.528Z,1.65
2016-12-16T04:50:13.514Z,1.65
2016-12-16T04:51:13.499Z,1.6
2016-12-16T04:52:13.485Z,1.62
2016-12-16T04:53:13.508Z,1.6
2016-12-16T04:54:13.456Z,1.55
2016-12-16T04:55:13.441Z,1.52
2016-12-16T04:56:13.426Z,1.55
2016-12-16T04:57:13.412Z,1.58
2016-12-16T04:58:13.401Z,1.52
2016-12-16T04:59:13.382Z,1.58
2016-12-16T05:00:13.368Z,1.52
2016-12-16T05:01:13.352Z,1.45
2016-12-16T05:02:13.337Z,1.54
2016-12-16T05:03:13.328Z,1.52
2016-12-16T05:04:13.313Z,1.52
2016-12-16T05:05:13.295Z,1.48
2016-12-16T05:06:13.286Z,1.5
2016-12-16T05:07:13.265Z,1.44
2016-12-16T05:08:13.253Z,1.45
2016-12-16T05:09:13.239Z,1.44
2016-12-16T05:10:13.220Z,1.47
2016-12-16T05:11:13.211Z,1.41
2016-12-16T05:12:13.190Z,1.41
2016-12-16T05:13:13.178Z,1.44
2016-12-16T05:14:13.165Z,1.44
2016-12-16T05:15:13.494Z,1.37
2016-12-16T05:16:13.142Z,1.37
2016-12-16T05:17:13.117Z,1.34
2016-12-16T05:18:13.106Z,1.4
2016-12-16T05:19:13.088Z,1.41
2016-12-16T05:20:13.073Z,1.42
2016-12-16T05:21:13.062Z,1.36
2016-12-16T05:22:13.045Z,1.4
2016-12-16T05:23:13.032Z,1.4
2016-12-16T05:24:13.018Z,1.37
2016-12-16T05:25:13.002Z,1.41
2016-12-16T05:26:12.989Z,1.33
2016-12-16T05:27:12.971Z,1.33
2016-12-16T05:28:12.957Z,1.34
2016-12-16T05:29:12.943Z,1.37
2016-12-16T05:30:12.926Z,1.4
2016-12-16T05:31:12.911Z,1.41
2016-12-16T05:32:12.896Z,1.34
2016-12-16T05:33:12.881Z,1.29
2016-12-16T05:34:12.868Z,1.4
2016-12-16T05:35:12.854Z,1.41
2016-12-16T05:36:12.840Z,1.36
2016-12-16T05:37:12.824Z,1.4
2016-12-16T05:38:12.812Z,1.37
2016-12-16T05:39:12.802Z,1.33
2016-12-16T05:40:12.780Z,1.34
2016-12-16T05:41:12.773Z,1.3
2016-12-16T05:42:12.750Z,1.33
2016-12-16T05:43:12.736Z,1.36
2016-12-16T05:44:12.721Z,1.29
2016-12-16T05:45:12.709Z,1.34
2016-12-16T05:46:12.694Z,1.32
2016-12-16T05:47:12.675Z,1.3
2016-12-16T05:48:12.661Z,1.3
2016-12-16T05:49:12.650Z,1.26
2016-12-16T05:50:12.632Z,1.33
2016-12-16T05:51:12.616Z,1.27
2016-12-16T05:52:12.605Z,1.24
2016-12-16T05:53:12.587Z,1.27
2016-12-16T05:54:12.572Z,1.26
2016-12-16T05:55:12.562Z,1.22
2016-12-16T05:56:12.541Z,1.15
2016-12-16T05:57:12.529Z,1.26
2016-12-16T05:58:12.514Z,1.22
2016-12-16T05:59:12.497Z,1.15
2016-12-16T06:00:12.486Z,1.23
2016-12-16T06:01:12.473Z,1.11
2016-12-16T06:02:12.453Z,1.08
2016-12-16T06:03:12.449Z,1.14
2016-12-16T06:04:12.428Z,1.14
2016-12-16T06:05:12.711Z,1.11
2016-12-16T06:06:12.392Z,1.11
2016-12-16T06:07:12.378Z,1.12
2016-12-16T06:08:12.376Z,1.18
2016-12-16T06:09:12.353Z,1.15
2016-12-16T06:10:12.333Z,1.14
2016-12-16T06:11:12.316Z,1.08
2016-12-16T06:12:12.303Z,1.12
2016-12-16T06:13:12.289Z,1.12
2016-12-16T06:14:12.274Z,1.15
2016-12-16T06:15:12.259Z,1
2016-12-16T06:16:12.247Z,1.06
2016-12-16T06:17:12.234Z,1.11
2016-12-16T06:18:12.213Z,1.05
2016-12-16T06:19:12.225Z,1.09
2016-12-16T06:20:12.190Z,1.05
2016-12-16T06:21:12.170Z,1.09
2016-12-16T06:22:12.156Z,0.94
2016-12-16T06:23:12.139Z,1.05
2016-12-16T06:24:12.127Z,1.08
2016-12-16T06:25:12.109Z,0.98
2016-12-16T06:26:12.095Z,1.09
2016-12-16T06:27:12.082Z,1
2016-12-16T06:28:12.065Z,1.06
2016-12-16T06:29:12.048Z,1.04
2016-12-16T06:30:12.034Z,1.04
2016-12-16T06:31:12.023Z,0.98
2016-12-16T06:32:12.005Z,1.02
2016-12-16T06:33:11.994Z,1.05
2016-12-16T06:34:11.975Z,1.04
2016-12-16T06:35:11.963Z,1.05
2016-12-16T06:36:11.943Z,1.05
2016-12-16T06:37:11.928Z,1.04
2016-12-16T06:38:11.915Z,1.06
2016-12-16T06:39:11.900Z,1
2016-12-16T06:40:11.885Z,0.97
2016-12-16T06:41:11.873Z,0.98
2016-12-16T06:42:11.855Z,0.93
2016-12-16T06:43:11.841Z,0.96
2016-12-16T06:44:11.824Z,0.93
2016-12-16T06:45:11.811Z,0.96
2016-12-16T06:46:11.793Z,0.91
2016-12-16T06:47:11.778Z,0.91
2016-12-16T06:48:11.766Z,0.91
2016-12-16T06:49:11.752Z,0.86
2016-12-16T06:50:11.734Z,0.84
2016-12-16T06:51:11.720Z,0.83
2016-12-16T06:52:11.707Z,0.9
2016-12-16T06:53:11.689Z,0.88
2016-12-16T06:54:11.675Z,0.83
2016-12-16T06:55:11.663Z,0.84
2016-12-16T06:56:11.644Z,0.83
2016-12-16T06:57:11.630Z,0.84
2016-12-16T06:58:11.613Z,0.73
2016-12-16T06:59:11.598Z,0.86
2016-12-16T07:00:11.893Z,0.78
2016-12-16T07:01:11.569Z,0.87
2016-12-16T07:02:11.584Z,0.84
2016-12-16T07:03:11.541Z,0.84
2016-12-16T07:04:11.527Z,0.86
2016-12-16T07:05:11.507Z,0.86
2016-12-16T07:06:11.798Z,0.84
2016-12-16T07:07:11.481Z,0.76
2016-12-16T07:08:11.464Z,0.84
2016-12-16T07:09:11.445Z,0.73
2016-12-16T07:10:11.431Z,0.94
2016-12-16T07:11:11.728Z,0.84
2016-12-16T07:12:11.404Z,0.84
2016-12-16T07:13:11.396Z,0.79
2016-12-16T07:14:11.675Z,0.78
2016-12-16T07:15:11.358Z,0.76
2016-12-16T07:16:11.343Z,0.86
2016-12-16T07:17:11.328Z,0.8
2016-12-16T07:18:11.313Z,0.9
2016-12-16T07:19:11.300Z,0.91
2016-12-16T07:20:11.283Z,0.7
2016-12-16T07:21:11.269Z,0.83
2016-12-16T07:22:11.257Z,0.83
2016-12-16T07:23:11.236Z,0.84
2016-12-16T07:24:11.223Z,0.87
2016-12-16T07:25:11.206Z,0.9
2016-12-16T07:26:11.192Z,0.84
2016-12-16T07:27:11.174Z,0.88
2016-12-16T07:28:11.462Z,0.87
2016-12-16T07:29:11.146Z,0.87
2016-12-16T07:30:11.130Z,0.84
2016-12-16T07:31:11.115Z,0.73
2016-12-16T07:32:11.100Z,0.86
2016-12-16T07:33:11.085Z,0.83
2016-12-16T07:34:11.071Z,0.84
2016-12-16T07:35:11.055Z,0.86
2016-12-16T07:36:11.041Z,0.88
2016-12-16T07:37:11.024Z,0.87
2016-12-16T07:38:11.011Z,0.72
2016-12-16T07:39:10.998Z,0.84
2016-12-16T07:40:10.980Z,0.79
2016-12-16T07:41:10.964Z,0.83
2016-12-16T07:42:10.948Z,0.83
2016-12-16T07:43:11.240Z,0.86
2016-12-16T07:44:10.918Z,0.88
2016-12-16T07:45:10.933Z,0.88
2016-12-16T07:46:10.892Z,0.93
2016-12-16T07:47:10.876Z,0.84
2016-12-16T07:48:10.858Z,0.86
2016-12-16T07:49:10.844Z,0.84
2016-12-16T07:50:10.828Z,0.79
2016-12-16T07:51:10.813Z,0.84
2016-12-16T07:52:10.801Z,0.78
2016-12-16T07:53:10.783Z,0.84
2016-12-16T07:54:10.768Z,0.87
2016-12-16T07:55:10.756Z,0.93
2016-12-16T07:56:10.764Z,0.94
2016-12-16T07:57:10.723Z,0.96
2016-12-16T07:58:10.708Z,0.97
2016-12-16T07:59:10.693Z,0.93
2016-12-16T08:00:10.681Z,0.97
2016-12-16T08:01:10.661Z,1
2016-12-16T08:02:10.647Z,1.05
2016-12-16T08:03:10.634Z,1.08
2016-12-16T08:04:10.616Z,1.05
2016-12-16T08:05:10.606Z,1.08
2016-12-16T08:06:10.588Z,1.08
2016-12-16T08:07:10.574Z,1.11
2016-12-16T08:08:10.557Z,1.11
2016-12-16T08:09:10.549Z,1.2
2016-12-16T08:10:10.528Z,1.12
2016-12-16T08:11:10.517Z,1.11
2016-12-16T08:12:10.500Z,1.22
2016-12-16T08:13:10.788Z,1.16
2016-12-16T08:14:10.469Z,1.26
2016-12-16T08:15:10.456Z,1.22
2016-12-16T08:16:10.445Z,1.3
2016-12-16T08:17:10.427Z,1.29
2016-12-16T08:18:10.412Z,1.37
2016-12-16T08:19:10.395Z,1.27
2016-12-16T08:20:10.378Z,1.33
2016-12-16T08:21:10.368Z,1.41
2016-12-16T08:22:10.351Z,1.4
2016-12-16T08:23:10.338Z,1.5
2016-12-16T08:24:10.323Z,1.51
2016-12-16T08:25:10.327Z,1.5
2016-12-16T08:26:10.294Z,1.47
2016-12-16T08:27:10.282Z,1.52
2016-12-16T08:28:10.262Z,1.47
2016-12-16T08:29:10.247Z,1.55
2016-12-16T08:30:10.236Z,1.58
2016-12-16T08:31:10.218Z,1.62
2016-12-16T08:32:10.209Z,1.65
2016-12-16T08:33:10.189Z,1.65
2016-12-16T08:34:10.173Z,1.68
2016-12-16T08:35:10.160Z,1.7
2016-12-16T08:36:10.148Z,1.73
2016-12-16T08:37:10.135Z,1.72
2016-12-16T08:38:10.117Z,1.7
2016-12-16T08:39:10.130Z,1.8
2016-12-16T08:40:10.086Z,1.81
2016-12-16T08:41:10.076Z,1.77
2016-12-16T08:42:10.062Z,1.8
2016-12-16T08:43:10.053Z,1.8
2016-12-16T08:44:10.033Z,1.9
2016-12-16T08:45:10.019Z,1.91
2016-12-16T08:46:10.002Z,1.87
2016-12-16T08:47:10.000Z,1.95
2016-12-16T08:48:09.975Z,2.03
2016-12-16T08:49:09.968Z,2.06
2016-12-16T08:50:09.948Z,1.99
2016-12-16T08:51:09.963Z,2.07
2016-12-16T08:52:09.916Z,2.07
2016-12-16T08:53:09.905Z,2.06
2016-12-16T08:54:09.898Z,2.09
2016-12-16T08:55:09.876Z,2.2
2016-12-16T08:56:09.862Z,2.21
2016-12-16T08:57:09.848Z,2.27
2016-12-16T08:58:09.833Z,2.28
2016-12-16T08:59:09.816Z,2.31
2016-12-16T09:00:09.807Z,2.38
2016-12-16T09:01:09.793Z,2.35
2016-12-16T09:02:09.781Z,2.45
2016-12-16T09:03:09.765Z,2.46
2016-12-16T09:04:09.751Z,2.54
2016-12-16T09:05:09.734Z,2.6
2016-12-16T09:06:09.720Z,2.61
2016-12-16T09:07:09.708Z,2.74
2016-12-16T09:08:09.693Z,2.66
2016-12-16T09:09:09.678Z,2.78
2016-12-16T09:10:09.671Z,2.81
2016-12-16T09:11:09.656Z,2.82
2016-12-16T09:12:09.643Z,2.77
2016-12-16T09:13:09.628Z,2.82
2016-12-16T09:14:09.921Z,2.87
2016-12-16T09:15:09.599Z,2.97
2016-12-16T09:16:09.586Z,2.97
2016-12-16T09:17:09.572Z,3.08
2016-12-16T09:18:09.862Z,3.06
2016-12-16T09:19:09.545Z,3.05
2016-12-16T09:20:09.527Z,3.15
2016-12-16T09:21:09.520Z,3.1
2016-12-16T09:22:09.505Z,3.1
2016-12-16T09:23:09.488Z,3.03
2016-12-16T09:24:09.479Z,3.15
2016-12-16T09:25:09.462Z,3.26
2016-12-16T09:26:09.449Z,3.31
2016-12-16T09:27:09.438Z,3.39
2016-12-16T09:28:09.437Z,3.31
2016-12-16T09:29:09.407Z,3.39
2016-12-16T09:30:09.398Z,3.35
2016-12-16T09:31:09.386Z,3.45
2016-12-16T09:32:09.370Z,3.45
2016-12-16T09:33:09.355Z,3.48
2016-12-16T09:34:09.341Z,3.47
2016-12-16T09:35:09.328Z,3.45
2016-12-16T09:36:09.319Z,3.5
2016-12-16T09:37:09.304Z,3.54
2016-12-16T09:38:09.289Z,3.54
2016-12-16T09:39:09.274Z,3.55
2016-12-16T09:40:09.576Z,3.57
2016-12-16T09:41:09.252Z,3.6
2016-12-16T09:42:09.242Z,3.6
2016-12-16T09:43:09.221Z,3.61
2016-12-16T09:44:09.516Z,3.65
2016-12-16T09:45:09.197Z,3.7
2016-12-16T09:46:09.182Z,3.66
2016-12-16T09:47:09.169Z,3.7
2016-12-16T09:48:09.160Z,3.7
2016-12-16T09:49:09.143Z,3.7
2016-12-16T09:50:09.133Z,3.69
2016-12-16T09:51:09.123Z,3.76
2016-12-16T09:52:09.110Z,3.72
2016-12-16T09:53:09.093Z,3.75
2016-12-16T09:54:09.081Z,3.83
2016-12-16T09:55:09.066Z,3.76
2016-12-16T09:56:09.055Z,3.75
2016-12-16T09:57:09.038Z,3.75
2016-12-16T09:58:09.061Z,3.87
2016-12-16T09:59:09.014Z,3.96
2016-12-16T10:00:09.003Z,3.88
2016-12-16T10:01:08.995Z,3.96
2016-12-16T10:02:08.978Z,3.9
2016-12-16T10:03:08.967Z,3.91
2016-12-16T10:04:08.949Z,4.02
2016-12-16T10:05:09.247Z,4.02
2016-12-16T10:06:08.925Z,4.05
2016-12-16T10:07:08.912Z,4
2016-12-16T10:08:08.897Z,4.05
2016-12-16T10:09:08.886Z,3.97
2016-12-16T10:10:08.873Z,4.05
2016-12-16T10:11:08.861Z,4.08
2016-12-16T10:12:08.849Z,4.09
2016-12-16T10:13:08.834Z,4.15
2016-12-16T10:14:08.824Z,4.15
2016-12-16T10:15:08.808Z,4.24
2016-12-16T10:16:08.799Z,4.27
2016-12-16T10:17:08.784Z,4.29
2016-12-16T10:18:08.773Z,4.41
2016-12-16T10:19:08.758Z,4.48
2016-12-16T10:20:08.747Z,4.63
2016-12-16T10:21:08.736Z,4.67
2016-12-16T10:22:08.722Z,4.77
2016-12-16T10:23:08.709Z,4.88
2016-12-16T10:24:08.701Z,4.85
2016-12-16T10:25:08.684Z,4.88
2016-12-16T10:26:08.677Z,4.89
2016-12-16T10:27:08.662Z,4.89
2016-12-16T10:28:08.648Z,4.8
2016-12-16T10:29:08.638Z,4.88
2016-12-16T10:30:08.628Z,4.96
2016-12-16T10:31:08.614Z,4.99
2016-12-16T10:32:08.599Z,5.06
2016-12-16T10:33:08.584Z,5.07
2016-12-16T10:34:08.574Z,5.12
2016-12-16T10:35:08.564Z,5.1
2016-12-16T10:36:08.546Z,5.09
2016-12-16T10:37:08.536Z,5.15
2016-12-16T10:38:08.526Z,5.22
2016-12-16T10:39:08.513Z,5.13
2016-12-16T10:40:08.500Z,5.02
2016-12-16T10:41:08.486Z,5.12
2016-12-16T10:42:08.474Z,5.13
2016-12-16T10:43:08.462Z,5.22
2016-12-16T10:44:08.453Z,5.22
2016-12-16T10:45:08.745Z,5.2
2016-12-16T10:46:08.430Z,5.21
2016-12-16T10:47:08.415Z,5.35
2016-12-16T10:48:08.401Z,5.38
2016-12-16T10:49:08.393Z,5.39
2016-12-16T10:50:08.380Z,5.33
2016-12-16T10:51:08.366Z,5.42
2016-12-16T10:52:08.359Z,5.42
2016-12-16T10:53:08.340Z,5.46
2016-12-16T10:54:08.337Z,5.57
2016-12-16T10:55:08.322Z,5.45
2016-12-16T10:56:08.306Z,5.57
2016-12-16T10:57:08.294Z,5.58
2016-12-16T10:58:08.287Z,5.57
2016-12-16T10:59:08.271Z,5.49
2016-12-16T11:00:08.261Z,5.58
2016-12-16T11:01:08.247Z,5.54
2016-12-16T11:02:08.239Z,5.51
2016-12-16T11:03:08.534Z,5.58
2016-12-16T11:04:08.212Z,5.54
2016-12-16T11:05:08.198Z,5.57
2016-12-16T11:06:08.185Z,5.71
2016-12-16T11:07:08.175Z,5.65
2016-12-16T11:08:08.172Z,5.65
2016-12-16T11:09:08.149Z,5.61
2016-12-16T11:10:08.139Z,5.65
2016-12-16T11:11:08.128Z,5.65
2016-12-16T11:12:08.117Z,5.65
2016-12-16T11:13:08.105Z,5.65
2016-12-16T11:14:08.094Z,5.54
2016-12-16T11:15:08.084Z,5.58
2016-12-16T11:16:08.375Z,5.56
2016-12-16T11:17:08.059Z,5.58
2016-12-16T11:18:08.047Z,5.56
2016-12-16T11:19:08.337Z,5.43
2016-12-16T11:20:08.330Z,5.46
2016-12-16T11:21:08.010Z,5.42
2016-12-16T11:22:07.999Z,5.38
2016-12-16T11:23:07.991Z,5.45
2016-12-16T11:24:07.974Z,5.45
2016-12-16T11:25:07.965Z,5.39
2016-12-16T11:26:07.956Z,5.36
2016-12-16T11:27:07.942Z,5.33
2016-12-16T11:28:07.928Z,5.35
2016-12-16T11:29:07.921Z,5.24
2016-12-16T11:30:07.906Z,5.2
2016-12-16T11:31:07.906Z,5.28
2016-12-16T11:32:07.885Z,5.38
2016-12-16T11:33:07.873Z,5.38
2016-12-16T11:34:07.859Z,5.46
2016-12-16T11:35:07.848Z,5.48
2016-12-16T11:36:07.841Z,5.45
2016-12-16T11:37:07.827Z,5.63
2016-12-16T11:38:07.814Z,5.65
2016-12-16T11:39:07.803Z,5.72
2016-12-16T11:40:07.791Z,5.89
2016-12-16T11:41:07.776Z,5.89
2016-12-16T11:42:07.768Z,5.93
2016-12-16T11:43:07.753Z,5.78
2016-12-16T11:44:07.746Z,5.91
2016-12-16T11:45:07.731Z,5.96
2016-12-16T11:46:07.725Z,5.97
2016-12-16T11:47:07.719Z,5.91
2016-12-16T11:48:07.700Z,5.93
2016-12-16T11:49:07.688Z,5.83
2016-12-16T11:50:07.673Z,5.86
2016-12-16T11:51:07.661Z,5.89
2016-12-16T11:52:07.650Z,5.93
2016-12-16T11:53:07.640Z,5.86
2016-12-16T11:54:07.630Z,5.86
2016-12-16T11:55:07.618Z,5.85
2016-12-16T11:56:07.606Z,5.86
2016-12-16T11:57:07.593Z,5.83
2016-12-16T11:58:07.584Z,5.97
2016-12-16T11:59:07.570Z,6.06
2016-12-16T12:00:07.864Z,5.97
2016-12-16T12:01:07.547Z,6.08
2016-12-16T12:02:07.538Z,6.01
2016-12-16T12:03:07.528Z,5.99
2016-12-16T12:04:07.816Z,5.96
2016-12-16T12:05:07.501Z,6.01
2016-12-16T12:06:07.496Z,6
2016-12-16T12:07:07.784Z,5.97
2016-12-16T12:08:07.468Z,6
2016-12-16T12:09:07.458Z,6.06
2016-12-16T12:10:07.749Z,6.12
2016-12-16T12:11:07.437Z,6.08
2016-12-16T12:12:07.421Z,6.01
2016-12-16T12:13:07.412Z,5.93
2016-12-16T12:14:07.402Z,5.86
2016-12-16T12:15:07.386Z,5.89
2016-12-16T12:16:07.374Z,5.89
2016-12-16T12:17:07.364Z,6.04
2016-12-16T12:18:07.354Z,6.06
2016-12-16T12:19:07.347Z,6.12
2016-12-16T12:20:07.331Z,6.04
2016-12-16T12:21:07.321Z,6.04
2016-12-16T12:22:07.306Z,6.06
2016-12-16T12:23:07.294Z,5.99
2016-12-16T12:24:07.284Z,6.04
2016-12-16T12:25:07.273Z,6.09
2016-12-16T12:26:07.261Z,6.12
2016-12-16T12:27:07.249Z,6.11
2016-12-16T12:28:07.239Z,5.97
2016-12-16T12:29:07.226Z,6.08
2016-12-16T12:30:07.212Z,5.97
2016-12-16T12:31:07.203Z,5.93
2016-12-16T12:32:07.193Z,5.86
2016-12-16T12:33:07.183Z,5.93
2016-12-16T12:34:07.171Z,5.83
2016-12-16T12:35:07.159Z,5.91
2016-12-16T12:36:07.150Z,5.85
2016-12-16T12:37:07.140Z,5.85
2016-12-16T12:38:07.123Z,5.85
2016-12-16T12:39:07.114Z,5.71
2016-12-16T12:40:07.100Z,5.67
2016-12-16T12:41:07.087Z,5.65
2016-12-16T12:42:07.082Z,5.53
2016-12-16T12:43:07.069Z,5.42
2016-12-16T12:44:07.062Z,5.33
2016-12-16T12:45:07.042Z,5.28
2016-12-16T12:46:07.031Z,5.27
2016-12-16T12:47:07.022Z,5.15
2016-12-16T12:48:07.009Z,5.22
2016-12-16T12:49:07.001Z,5.15
2016-12-16T12:50:06.990Z,5.21
2016-12-16T12:51:06.975Z,5.09
2016-12-16T12:52:06.962Z,5.1
2016-12-16T12:53:06.956Z,5.1
2016-12-16T12:54:06.938Z,5.09
2016-12-16T12:55:06.928Z,5.13
2016-12-16T12:56:06.924Z,5.09
2016-12-16T12:57:06.906Z,4.99
2016-12-16T12:58:06.904Z,5.02
2016-12-16T12:59:06.883Z,5.12
2016-12-16T13:00:06.871Z,5.07
2016-12-16T13:01:06.856Z,4.99
2016-12-16T13:02:06.848Z,4.99
2016-12-16T13:03:06.833Z,4.99
2016-12-16T13:04:06.822Z,4.92
2016-12-16T13:05:06.841Z,4.91
2016-12-16T13:06:06.803Z,4.92
2016-12-16T13:07:06.792Z,4.89
2016-12-16T13:08:06.776Z,4.92
2016-12-16T13:09:06.766Z,4.85
2016-12-16T13:10:06.755Z,4.77
2016-12-16T13:11:06.736Z,4.8
2016-12-16T13:12:06.727Z,4.77
2016-12-16T13:13:06.715Z,4.75
2016-12-16T13:14:06.707Z,4.67
2016-12-16T13:15:06.695Z,4.67
2016-12-16T13:16:06.681Z,4.69
2016-12-16T13:17:06.670Z,4.63
2016-12-16T13:18:06.659Z,4.73
2016-12-16T13:19:06.646Z,4.69
2016-12-16T13:20:06.632Z,4.69
2016-12-16T13:21:06.620Z,4.7